Time;durP1;ratioP1;P1;durP2;ratioP2;P2;SDS_P1;SDS_P2;PMS_P1;PMS_P2;Temp;Humidity;BMP_temperature;BMP_pressure;BME280_temperature;BME280_humidity;BME280_pressure;Samples;Min_cycle;Max_cycle;Signal;HPM_P1;HPM_P2
2022/04/18 00:01:50;;;;;;;12.32;8.63;;;8.30;70.90;;;;;;5055350;28;20052;-71
2022/04/18 00:04:17;;;;;;;12.20;8.73;;;8.30;71.10;;;;;;5054682;28;20067;-71
2022/04/18 00:06:44;;;;;;;13.80;8.70;;;8.20;71.60;;;;;;5054414;28;20131;-70
2022/04/18 00:09:11;;;;;;;11.80;8.32;;;8.20;71.70;;;;;;5055350;28;20088;-69
2022/04/18 00:11:38;;;;;;;15.38;9.60;;;8.20;72.00;;;;;;5056392;28;20133;-70
2022/04/18 00:14:05;;;;;;;15.90;9.73;;;8.10;71.80;;;;;;5055611;28;20084;-69
2022/04/18 00:16:33;;;;;;;11.57;8.55;;;8.10;72.30;;;;;;5055097;28;20115;-69
2022/04/18 00:19:00;;;;;;;15.45;10.07;;;8.10;72.50;;;;;;5054717;28;20148;-69
2022/04/18 00:21:27;;;;;;;13.48;9.15;;;8.00;72.50;;;;;;5055569;28;20092;-69
2022/04/18 00:23:54;;;;;;;13.75;8.48;;;8.00;73.60;;;;;;5056075;28;20055;-69
2022/04/18 00:26:21;;;;;;;14.00;8.80;;;8.00;73.10;;;;;;5054666;28;20470;-69
2022/04/18 00:28:47;;;;;;;13.13;9.30;;;8.00;73.20;;;;;;5070732;28;20103;-69
2022/04/18 00:31:14;;;;;;;14.73;9.40;;;7.90;72.80;;;;;;5054791;28;20097;-69
2022/04/18 00:33:42;;;;;;;14.68;9.75;;;7.90;73.10;;;;;;5055992;28;20052;-69
2022/04/18 00:36:09;;;;;;;13.10;9.18;;;7.90;73.30;;;;;;5054093;28;20049;-68
2022/04/18 00:38:36;;;;;;;16.13;9.82;;;7.90;74.00;;;;;;5054689;28;20510;-68
2022/04/18 00:41:03;;;;;;;16.02;9.32;;;7.80;74.50;;;;;;5054334;28;20049;-69
2022/04/18 00:43:40;;;;;;;13.82;9.50;;;7.80;74.40;;;;;;5054770;28;20088;-69
2022/04/18 00:46:07;;;;;;;14.93;9.77;;;7.70;75.10;;;;;;5055826;28;20077;-69
2022/04/18 00:48:34;;;;;;;14.43;9.48;;;7.70;74.40;;;;;;5053694;28;20057;-70
2022/04/18 00:51:05;;;;;;;14.55;9.32;;;7.80;74.60;;;;;;5054467;28;20048;-69
2022/04/18 00:53:32;;;;;;;16.35;9.95;;;7.70;74.60;;;;;;5054108;28;20049;-70
2022/04/18 00:55:59;;;;;;;16.05;9.38;;;7.60;74.90;;;;;;5054816;28;20044;-70
2022/04/18 00:58:26;;;;;;;16.23;9.63;;;7.60;75.10;;;;;;5055352;28;20076;-70
2022/04/18 01:00:54;;;;;;;12.77;9.05;;;7.60;75.20;;;;;;5055288;28;20533;-69
2022/04/18 01:03:21;;;;;;;15.40;9.77;;;7.60;75.30;;;;;;5053416;28;20409;-69
2022/04/18 01:05:48;;;;;;;15.23;9.38;;;7.60;75.70;;;;;;5054710;28;20472;-69
2022/04/18 01:08:16;;;;;;;15.88;10.18;;;7.60;75.50;;;;;;5054101;28;20083;-69
2022/04/18 01:10:44;;;;;;;13.57;9.57;;;7.60;75.50;;;;;;5053226;28;20132;-69
2022/04/18 01:13:11;;;;;;;17.15;10.45;;;7.60;75.70;;;;;;5055209;28;20128;-69
2022/04/18 01:15:38;;;;;;;14.05;9.65;;;7.60;76.10;;;;;;5055126;28;20515;-69
2022/04/18 01:18:05;;;;;;;14.73;9.55;;;7.50;76.00;;;;;;5052862;28;20052;-70
2022/04/18 01:20:35;;;;;;;18.30;10.30;;;7.50;76.20;;;;;;5054621;28;20088;-70
2022/04/18 01:23:06;;;;;;;15.65;9.57;;;7.50;76.50;;;;;;5053884;28;20049;-69
2022/04/18 01:31:02;;;;;;;16.90;10.65;;;7.40;76.80;;;;;;5053111;28;20049;-69
2022/04/18 01:33:30;;;;;;;15.50;10.35;;;7.30;77.20;;;;;;5054745;28;20080;-70
2022/04/18 01:35:58;;;;;;;17.10;10.23;;;7.30;77.50;;;;;;5054488;28;20049;-70
2022/04/18 01:38:26;;;;;;;13.88;9.00;;;7.30;77.70;;;;;;5052653;28;20107;-69
2022/04/18 01:40:53;;;;;;;15.85;9.43;;;7.30;78.50;;;;;;5053458;28;20103;-69
2022/04/18 01:43:20;;;;;;;13.77;9.32;;;7.30;78.40;;;;;;5054623;28;20132;-70
2022/04/18 01:45:47;;;;;;;15.52;9.77;;;7.30;78.60;;;;;;5052706;28;20076;-69
2022/04/18 01:48:14;;;;;;;14.65;9.45;;;7.30;78.90;;;;;;5053110;28;20057;-70
2022/04/18 01:50:41;;;;;;;14.73;9.85;;;7.30;78.60;;;;;;5052750;28;20508;-70
2022/04/18 01:53:07;;;;;;;15.63;10.20;;;7.30;78.60;;;;;;5052712;28;20075;-69
2022/04/18 01:55:36;;;;;;;14.40;9.68;;;7.20;78.90;;;;;;5053315;28;20131;-70
2022/04/18 01:58:05;;;;;;;15.02;9.63;;;7.20;79.20;;;;;;5053457;28;20138;-69
2022/04/18 02:00:32;;;;;;;13.93;9.50;;;7.20;79.00;;;;;;5053332;28;20056;-70
2022/04/18 02:02:59;;;;;;;15.90;9.57;;;7.30;79.10;;;;;;5052989;28;20059;-70
2022/04/18 02:05:26;;;;;;;15.07;9.93;;;7.20;78.90;;;;;;5052915;28;20044;-69
2022/04/18 02:07:53;;;;;;;14.55;9.35;;;7.20;78.80;;;;;;5052546;28;20132;-69
2022/04/18 02:10:20;;;;;;;14.38;10.13;;;7.30;78.60;;;;;;5052785;28;20053;-70
2022/04/18 02:12:48;;;;;;;13.15;8.50;;;7.30;78.30;;;;;;5069658;28;20056;-70
2022/04/18 02:15:16;;;;;;;13.70;9.52;;;7.30;78.50;;;;;;5051964;28;20489;-70
2022/04/18 02:17:43;;;;;;;15.73;10.32;;;7.30;78.10;;;;;;5051358;28;20053;-70
2022/04/18 02:20:10;;;;;;;13.93;9.10;;;7.40;78.60;;;;;;5053322;28;20128;-70
2022/04/18 02:22:37;;;;;;;14.60;9.40;;;7.30;78.50;;;;;;5052570;28;20135;-70
2022/04/18 02:25:04;;;;;;;15.02;8.82;;;7.30;78.40;;;;;;5053682;28;20103;-70
2022/04/18 02:27:31;;;;;;;14.55;9.57;;;7.30;78.40;;;;;;5051945;28;20053;-70
2022/04/18 02:29:59;;;;;;;17.25;9.32;;;7.30;78.30;;;;;;5052266;28;20052;-70
2022/04/18 02:35:10;;;;;;;15.45;9.45;;;7.30;78.20;;;;;;5068362;28;20131;-70
2022/04/18 02:37:37;;;;;;;18.20;8.95;;;7.30;78.20;;;;;;5052653;28;20087;-71
2022/04/18 02:40:06;;;;;;;13.88;9.88;;;7.20;78.20;;;;;;5052304;28;20080;-71
2022/04/18 02:42:33;;;;;;;16.10;9.90;;;7.30;78.20;;;;;;5052848;28;20076;-70
2022/04/18 02:45:01;;;;;;;12.30;9.20;;;7.20;78.10;;;;;;5053217;28;20131;-69
2022/04/18 02:47:28;;;;;;;16.45;9.63;;;7.20;78.40;;;;;;5051941;28;20556;-69
2022/04/18 02:49:55;;;;;;;12.95;9.68;;;7.20;78.50;;;;;;5052590;28;20052;-69
2022/04/18 02:52:22;;;;;;;15.10;9.50;;;7.20;78.60;;;;;;5052403;28;20049;-70
2022/04/18 02:54:48;;;;;;;15.95;9.25;;;7.20;78.50;;;;;;5051843;28;20525;-70
2022/04/18 02:57:15;;;;;;;14.25;9.38;;;7.20;78.30;;;;;;5052920;28;20076;-70
2022/04/18 02:59:42;;;;;;;15.00;9.55;;;7.20;78.60;;;;;;5052792;28;20053;-71
2022/04/18 03:02:10;;;;;;;15.68;9.75;;;7.20;78.60;;;;;;5053224;28;20077;-70
2022/04/18 03:04:37;;;;;;;15.43;10.77;;;7.20;78.70;;;;;;5052778;28;20069;-69
2022/04/18 03:07:05;;;;;;;13.95;9.10;;;7.10;78.50;;;;;;5051892;28;20076;-69
2022/04/18 03:09:32;;;;;;;15.60;10.38;;;7.20;78.60;;;;;;5051346;28;20159;-70
2022/04/18 03:12:02;;;;;;;15.70;9.93;;;7.10;78.80;;;;;;5053202;28;20400;-70
2022/04/18 03:14:29;;;;;;;13.25;9.70;;;7.10;79.00;;;;;;5051914;28;20111;-68
2022/04/18 03:16:56;;;;;;;16.20;9.88;;;7.10;78.90;;;;;;5051086;28;20076;-69
2022/04/18 03:19:25;;;;;;;14.07;9.45;;;7.10;79.00;;;;;;5052815;28;20404;-69
2022/04/18 03:21:51;;;;;;;15.30;9.48;;;7.10;79.50;;;;;;5051666;28;20400;-69
2022/04/18 03:24:19;;;;;;;16.13;10.55;;;7.10;79.60;;;;;;5050967;28;20088;-69
2022/04/18 03:26:46;;;;;;;14.90;9.90;;;7.00;79.70;;;;;;5051375;28;20111;-68
2022/04/18 03:29:13;;;;;;;14.88;10.52;;;7.00;79.90;;;;;;5051530;28;20052;-69
2022/04/18 03:31:39;;;;;;;14.50;10.23;;;7.00;80.10;;;;;;5052096;28;20084;-69
2022/04/18 03:34:06;;;;;;;13.98;10.10;;;7.00;80.20;;;;;;5052484;28;20091;-70
2022/04/18 03:42:04;;;;;;;14.57;10.32;;;6.90;81.30;;;;;;5052705;28;20055;-70
2022/04/18 03:44:31;;;;;;;13.82;9.60;;;6.90;81.40;;;;;;5050380;28;20045;-71
2022/04/18 03:46:58;;;;;;;16.67;10.20;;;6.80;81.30;;;;;;5051245;28;20448;-69
2022/04/18 03:49:25;;;;;;;15.20;10.18;;;6.80;81.60;;;;;;5051635;28;20392;-70
2022/04/18 03:51:53;;;;;;;13.75;10.25;;;6.80;82.30;;;;;;5050489;28;20135;-70
2022/04/18 03:54:20;;;;;;;14.52;9.70;;;6.70;82.00;;;;;;5051410;28;20064;-70
2022/04/18 03:56:47;;;;;;;15.20;10.55;;;6.70;82.80;;;;;;5052487;28;20085;-72
2022/04/18 03:59:14;;;;;;;13.80;10.00;;;6.80;83.40;;;;;;5051540;28;20088;-70
2022/04/18 04:01:41;;;;;;;18.17;11.15;;;6.60;83.40;;;;;;5052066;28;20512;-70
2022/04/18 04:04:08;;;;;;;15.13;10.20;;;6.60;83.10;;;;;;5051189;28;20127;-71
2022/04/18 04:06:34;;;;;;;15.88;10.73;;;6.50;83.10;;;;;;5051742;28;20080;-71
2022/04/18 04:09:03;;;;;;;19.50;10.40;;;6.50;84.00;;;;;;5051454;28;20144;-71
2022/04/18 04:11:29;;;;;;;12.15;9.25;;;6.50;84.10;;;;;;5052124;28;20084;-70
2022/04/18 04:13:56;;;;;;;14.30;10.30;;;6.50;84.10;;;;;;5050417;28;20057;-71
2022/04/18 04:16:23;;;;;;;14.07;10.02;;;6.50;84.40;;;;;;5051047;28;20087;-69
2022/04/18 04:18:50;;;;;;;15.70;10.30;;;6.50;84.10;;;;;;5051143;28;20092;-68
2022/04/18 04:21:17;;;;;;;16.30;10.50;;;6.50;84.10;;;;;;5051328;28;20492;-69
2022/04/18 04:23:43;;;;;;;15.52;10.10;;;6.50;84.30;;;;;;5050725;28;20084;-69
2022/04/18 04:26:12;;;;;;;16.55;11.05;;;6.50;84.50;;;;;;5051709;28;20057;-68
2022/04/18 04:28:39;;;;;;;13.52;9.88;;;6.50;84.70;;;;;;5050366;28;20441;-68
2022/04/18 04:31:06;;;;;;;15.88;9.18;;;6.40;85.30;;;;;;5050848;28;20480;-69
2022/04/18 04:33:32;;;;;;;17.95;11.25;;;6.40;85.10;;;;;;5050972;28;20111;-69
2022/04/18 04:35:59;;;;;;;15.90;10.55;;;6.40;85.40;;;;;;5051409;28;20489;-69
2022/04/18 04:38:26;;;;;;;16.55;10.35;;;6.40;85.70;;;;;;5051238;28;20163;-69
2022/04/18 04:40:54;;;;;;;15.43;9.88;;;6.40;85.70;;;;;;5050455;28;20459;-68
2022/04/18 04:43:27;;;;;;;14.25;9.63;;;6.40;86.20;;;;;;5054808;28;20084;-69
2022/04/18 04:45:54;;;;;;;14.98;10.02;;;6.30;86.30;;;;;;5054649;28;20079;-69
2022/04/18 04:48:21;;;;;;;14.85;9.90;;;6.30;86.30;;;;;;5053954;28;20115;-68
2022/04/18 04:50:48;;;;;;;13.57;9.88;;;6.30;86.60;;;;;;5054418;28;20088;-68
2022/04/18 04:53:15;;;;;;;17.00;10.05;;;6.30;87.00;;;;;;5054674;28;20160;-69
2022/04/18 04:55:42;;;;;;;16.40;10.20;;;6.30;87.30;;;;;;5053392;28;20084;-68
2022/04/18 04:58:10;;;;;;;16.15;9.25;;;6.40;87.20;;;;;;5054135;28;20051;-70
2022/04/18 05:00:38;;;;;;;17.77;9.93;;;6.30;87.20;;;;;;5055345;28;20059;-70
2022/04/18 05:03:05;;;;;;;13.52;8.80;;;6.40;87.30;;;;;;5054940;28;20089;-70
2022/04/18 05:05:32;;;;;;;13.80;10.18;;;6.40;87.40;;;;;;5054283;28;20049;-70
2022/04/18 05:07:59;;;;;;;13.63;9.52;;;6.40;87.70;;;;;;5058939;28;20049;-69
2022/04/18 05:10:26;;;;;;;13.55;9.88;;;6.40;87.80;;;;;;5034505;28;20144;-71
2022/04/18 05:12:53;;;;;;;16.08;9.68;;;6.40;87.50;;;;;;5067364;28;20140;-68
2022/04/18 05:15:20;;;;;;;14.43;10.00;;;6.40;87.60;;;;;;5052473;28;20092;-69
2022/04/18 05:17:48;;;;;;;13.38;8.75;;;6.40;87.30;;;;;;5054511;28;20055;-69
2022/04/18 05:20:15;;;;;;;15.38;10.18;;;6.40;87.60;;;;;;5053722;28;20092;-68
2022/04/18 05:22:42;;;;;;;14.75;9.43;;;6.50;87.90;;;;;;5053571;28;20136;-70
2022/04/18 05:25:09;;;;;;;14.55;9.25;;;6.50;88.90;;;;;;5054327;28;20057;-70
2022/04/18 05:27:36;;;;;;;14.15;9.18;;;6.50;88.20;;;;;;5054513;28;20068;-70
2022/04/18 05:30:04;;;;;;;13.55;9.15;;;6.60;88.30;;;;;;5054175;28;20489;-70
2022/04/18 05:32:31;;;;;;;12.95;9.07;;;6.60;87.90;;;;;;5051956;28;20132;-70
2022/04/18 05:34:59;;;;;;;13.75;8.57;;;6.60;87.80;;;;;;5067166;28;20084;-71
2022/04/18 05:37:26;;;;;;;11.80;8.82;;;6.70;88.10;;;;;;5052059;28;20223;-71
2022/04/18 05:39:53;;;;;;;11.80;8.38;;;6.80;87.50;;;;;;5052872;28;20056;-71
2022/04/18 05:42:23;;;;;;;13.80;9.48;;;6.90;87.50;;;;;;5050874;28;20557;-70
2022/04/18 05:44:50;;;;;;;13.67;8.83;;;7.00;87.30;;;;;;5052408;28;20390;-70
2022/04/18 05:47:16;;;;;;;13.05;8.43;;;7.00;86.80;;;;;;5051777;28;20048;-72
2022/04/18 05:49:43;;;;;;;13.75;8.48;;;7.10;86.50;;;;;;5051648;28;20091;-72
2022/04/18 05:52:13;;;;;;;16.38;9.15;;;7.20;86.30;;;;;;5052015;28;20056;-72
2022/04/18 05:54:40;;;;;;;16.13;9.15;;;7.30;86.20;;;;;;5050808;28;20044;-72
2022/04/18 05:57:07;;;;;;;13.70;8.57;;;7.40;86.00;;;;;;5050700;28;20041;-72
2022/04/18 05:59:34;;;;;;;11.90;8.57;;;7.60;85.80;;;;;;5050563;28;20084;-71
2022/04/18 06:02:01;;;;;;;12.02;9.00;;;7.70;85.40;;;;;;5053205;28;20358;-72
2022/04/18 06:04:28;;;;;;;11.75;8.52;;;7.90;85.20;;;;;;5051157;28;20083;-71
2022/04/18 06:06:55;;;;;;;12.52;8.40;;;8.10;84.80;;;;;;5051731;28;20149;-72
2022/04/18 06:09:23;;;;;;;12.27;8.68;;;8.30;84.40;;;;;;5051810;28;20080;-73
2022/04/18 06:11:51;;;;;;;13.90;9.00;;;8.50;84.00;;;;;;5050834;28;20508;-73
2022/04/18 06:14:18;;;;;;;13.45;8.32;;;8.90;83.00;;;;;;5051844;28;20465;-73
2022/04/18 06:16:44;;;;;;;13.05;8.38;;;9.20;81.80;;;;;;5051415;28;20136;-72
2022/04/18 06:19:11;;;;;;;14.13;8.80;;;9.60;80.60;;;;;;5050969;28;20088;-72
2022/04/18 06:21:38;;;;;;;12.45;8.75;;;10.10;79.90;;;;;;5050818;28;20420;-74
2022/04/18 06:24:05;;;;;;;14.05;8.68;;;10.60;77.90;;;;;;5051783;28;20543;-71
2022/04/18 06:26:34;;;;;;;13.88;9.25;;;11.20;75.10;;;;;;5049797;28;20190;-70
2022/04/18 06:29:00;;;;;;;14.13;8.80;;;11.60;73.90;;;;;;5051444;28;20094;-72
2022/04/18 06:31:27;;;;;;;13.02;9.07;;;12.00;73.00;;;;;;5050199;28;20441;-71
2022/04/18 06:33:54;;;;;;;15.00;8.75;;;12.40;71.70;;;;;;5051560;28;20080;-71
2022/04/18 06:36:21;;;;;;;12.43;8.45;;;13.00;70.90;;;;;;5050439;28;20073;-71
2022/04/18 06:38:48;;;;;;;11.15;8.55;;;13.40;69.50;;;;;;5050593;28;20095;-71
2022/04/18 06:41:15;;;;;;;15.30;9.13;;;13.90;68.70;;;;;;5051448;28;20048;-71
2022/04/18 06:43:43;;;;;;;12.15;8.23;;;14.20;67.30;;;;;;5052361;28;20124;-71
2022/04/18 06:46:10;;;;;;;14.07;9.45;;;14.40;65.90;;;;;;5051231;28;20080;-71
2022/04/18 06:48:36;;;;;;;13.25;9.63;;;14.90;66.00;;;;;;5049473;28;20045;-71
2022/04/18 06:51:03;;;;;;;11.40;8.32;;;15.00;64.90;;;;;;5049805;28;20500;-72
2022/04/18 06:53:30;;;;;;;11.38;8.32;;;15.30;64.50;;;;;;5050562;28;20048;-72
2022/04/18 06:58:43;;;;;;;12.63;8.48;;;15.90;63.40;;;;;;5051859;28;20032;-71
2022/04/18 07:01:09;;;;;;;10.98;8.27;;;16.30;63.10;;;;;;5051244;28;20136;-71
2022/04/18 07:03:36;;;;;;;11.57;8.45;;;16.40;61.90;;;;;;5050106;28;20140;-71
2022/04/18 07:06:03;;;;;;;9.95;7.90;;;16.70;61.70;;;;;;5051933;28;20496;-71
2022/04/18 07:08:30;;;;;;;11.52;8.45;;;16.70;60.90;;;;;;5049627;28;20538;-72
2022/04/18 07:10:57;;;;;;;13.52;8.27;;;16.90;60.80;;;;;;5051461;28;20548;-71
2022/04/18 07:13:24;;;;;;;12.65;8.48;;;17.30;60.90;;;;;;5050096;28;20084;-72
2022/04/18 07:15:53;;;;;;;11.05;8.32;;;17.70;60.60;;;;;;5050383;28;20057;-71
2022/04/18 07:18:20;;;;;;;12.30;7.88;;;18.10;60.00;;;;;;5050584;28;20114;-72
2022/04/18 07:20:47;;;;;;;15.23;8.23;;;18.70;59.70;;;;;;5049980;28;20455;-72
2022/04/18 07:23:13;;;;;;;10.35;7.53;;;19.00;59.00;;;;;;5048245;28;20084;-72
2022/04/18 07:25:40;;;;;;;10.63;7.80;;;19.30;58.30;;;;;;5049686;28;20131;-72
2022/04/18 07:28:07;;;;;;;11.50;7.93;;;19.70;58.00;;;;;;5051584;28;20096;-73
2022/04/18 07:30:34;;;;;;;9.60;7.78;;;19.90;57.50;;;;;;5047632;28;20041;-73
2022/04/18 07:33:02;;;;;;;12.75;7.05;;;20.20;57.20;;;;;;5050747;28;20067;-73
2022/04/18 07:35:29;;;;;;;15.02;8.55;;;20.20;56.30;;;;;;5048912;28;20076;-74
2022/04/18 07:40:42;;;;;;;14.30;8.30;;;20.70;56.30;;;;;;5050990;28;20040;-72
2022/04/18 07:43:09;;;;;;;11.90;7.05;;;20.80;55.30;;;;;;5050902;28;20049;-73
2022/04/18 07:45:36;;;;;;;9.07;7.30;;;21.20;55.20;;;;;;5044519;28;20496;-73
2022/04/18 07:48:06;;;;;;;10.38;7.47;;;21.50;54.50;;;;;;5048133;28;20124;-72
2022/04/18 07:53:18;;;;;;;10.00;6.90;;;21.70;53.30;;;;;;5050060;28;20051;-72
2022/04/18 07:55:44;;;;;;;9.82;7.00;;;21.90;53.30;;;;;;5050759;28;20519;-72
2022/04/18 07:58:11;;;;;;;8.13;6.15;;;21.90;52.30;;;;;;5048021;28;20444;-72
2022/04/18 08:00:38;;;;;;;10.65;6.60;;;21.90;51.80;;;;;;5049842;28;20127;-71
2022/04/18 08:03:06;;;;;;;8.57;6.45;;;21.60;51.40;;;;;;5050085;28;20091;-72
2022/04/18 08:05:33;;;;;;;9.45;6.10;;;21.60;50.70;;;;;;5050539;28;20088;-73
2022/04/18 08:08:00;;;;;;;9.15;7.00;;;21.40;51.00;;;;;;5049223;28;20136;-73
2022/04/18 08:10:28;;;;;;;9.75;6.03;;;21.50;50.40;;;;;;5050083;28;20076;-72
2022/04/18 08:12:55;;;;;;;8.23;5.22;;;21.40;51.10;;;;;;5048846;28;20128;-73
2022/04/18 08:15:22;;;;;;;8.93;6.10;;;21.70;51.00;;;;;;5048940;28;20119;-73
2022/04/18 08:17:49;;;;;;;7.50;5.78;;;21.80;50.80;;;;;;5054131;28;20045;-73
2022/04/18 08:20:17;;;;;;;6.95;5.72;;;22.00;50.60;;;;;;5054362;28;20052;-73
2022/04/18 08:22:44;;;;;;;9.55;6.10;;;22.10;50.20;;;;;;5054213;28;20049;-73
2022/04/18 08:25:11;;;;;;;9.55;6.18;;;22.20;50.30;;;;;;5053385;28;20052;-73
2022/04/18 08:27:37;;;;;;;13.85;5.53;;;22.30;50.00;;;;;;5051905;28;20447;-73
2022/04/18 08:30:05;;;;;;;8.48;6.10;;;22.70;49.60;;;;;;5054825;28;20044;-73
2022/04/18 08:32:36;;;;;;;8.65;6.05;;;22.80;49.30;;;;;;5053762;28;20081;-75
2022/04/18 08:35:03;;;;;;;6.90;5.78;;;22.90;49.10;;;;;;5054229;28;20480;-73
2022/04/18 08:37:31;;;;;;;8.35;6.28;;;22.90;48.80;;;;;;5052098;28;20500;-74
2022/04/18 08:39:58;;;;;;;8.20;5.70;;;22.90;48.80;;;;;;5054837;28;20110;-73
2022/04/18 08:42:26;;;;;;;9.98;5.25;;;23.10;48.80;;;;;;5054070;28;20084;-73
2022/04/18 08:44:54;;;;;;;7.63;6.03;;;23.00;48.80;;;;;;5053586;28;20555;-74
2022/04/18 08:52:53;;;;;;;5.90;5.00;;;24.10;48.40;;;;;;5055218;28;20063;-73
2022/04/18 08:55:21;;;;;;;8.52;5.97;;;24.60;47.90;;;;;;5053873;28;20052;-73
2022/04/18 08:57:48;;;;;;;8.68;5.95;;;24.60;47.60;;;;;;5052104;28;20053;-74
2022/04/18 09:00:15;;;;;;;7.72;5.35;;;24.70;48.00;;;;;;5052967;28;20131;-73
2022/04/18 09:02:42;;;;;;;8.20;5.20;;;24.60;47.80;;;;;;5058644;28;20465;-72
2022/04/18 09:05:10;;;;;;;8.05;5.43;;;24.80;47.60;;;;;;5056056;28;20057;-71
2022/04/18 09:07:38;;;;;;;6.88;5.40;;;24.80;47.00;;;;;;5053714;28;20076;-62
2022/04/18 09:10:07;;;;;;;5.57;4.95;;;25.10;47.20;;;;;;5051858;28;20106;-61
2022/04/18 09:12:34;;;;;;;7.95;5.22;;;25.20;46.70;;;;;;5053621;28;20133;-62
2022/04/18 09:15:01;;;;;;;6.05;4.88;;;25.60;46.90;;;;;;5054046;28;20139;-60
2022/04/18 09:17:29;;;;;;;6.85;5.43;;;25.80;46.80;;;;;;5052875;28;20132;-60
2022/04/18 09:20:08;;;;;;;7.20;5.00;;;26.00;46.70;;;;;;5050849;28;20045;-63
2022/04/18 09:22:42;;;;;;;8.73;5.38;;;26.00;45.40;;;;;;5053212;28;20508;-64
2022/04/18 09:25:19;;;;;;;7.32;5.13;;;26.10;46.00;;;;;;5051793;28;20481;-61
2022/04/18 09:27:54;;;;;;;7.03;5.75;;;26.30;45.70;;;;;;5051666;28;20045;-62
2022/04/18 09:30:21;;;;;;;7.10;5.00;;;26.20;46.30;;;;;;5051067;28;20071;-62
2022/04/18 09:32:57;;;;;;;6.38;4.82;;;26.60;46.10;;;;;;5052142;28;20052;-63
2022/04/18 09:35:25;;;;;;;6.30;4.90;;;26.40;44.40;;;;;;5052074;28;20060;-70
2022/04/18 09:37:53;;;;;;;6.43;5.07;;;26.30;45.70;;;;;;5051798;28;20056;-63
2022/04/18 09:40:24;;;;;;;6.68;5.00;;;26.70;45.70;;;;;;5053002;28;20052;-62
2022/04/18 09:42:52;;;;;;;6.30;5.20;;;26.50;44.90;;;;;;5054095;28;20238;-64
2022/04/18 09:45:20;;;;;;;6.60;5.18;;;26.30;45.30;;;;;;5052635;28;20417;-66
2022/04/18 09:47:54;;;;;;;7.63;4.80;;;26.40;45.60;;;;;;5053381;28;20045;-64
2022/04/18 09:53:08;;;;;;;6.40;4.55;;;26.40;45.10;;;;;;5068423;28;20497;-64
2022/04/18 09:55:36;;;;;;;7.03;4.60;;;26.40;45.10;;;;;;5051701;28;20049;-64
2022/04/18 09:58:04;;;;;;;7.10;5.03;;;26.80;45.20;;;;;;5051930;28;20076;-64
2022/04/18 10:00:31;;;;;;;7.78;5.30;;;27.00;44.70;;;;;;5044895;28;20059;-64
2022/04/18 10:02:58;;;;;;;6.90;5.00;;;27.10;44.80;;;;;;5050754;28;20048;-60
2022/04/18 10:05:27;;;;;;;6.85;4.10;;;26.90;44.80;;;;;;5048632;28;20147;-61
2022/04/18 10:07:55;;;;;;;6.05;4.50;;;27.20;44.80;;;;;;5050426;28;20080;-61
2022/04/18 10:10:22;;;;;;;6.72;4.55;;;27.30;44.50;;;;;;5051324;28;20049;-61
2022/04/18 10:12:50;;;;;;;5.28;4.03;;;27.60;44.50;;;;;;5050050;28;20139;-60
2022/04/18 10:15:17;;;;;;;5.05;3.70;;;27.90;43.80;;;;;;5047949;28;20088;-60
2022/04/18 10:17:45;;;;;;;7.60;4.50;;;27.90;43.60;;;;;;5050994;28;20049;-61
2022/04/18 10:20:24;;;;;;;10.60;4.10;;;27.90;43.80;;;;;;5049777;28;20084;-61
2022/04/18 10:23:28;;;;;;;4.95;4.05;;;27.70;43.70;;;;;;5050227;28;20460;-61
2022/04/18 10:26:27;;;;;;;5.32;4.15;;;27.80;42.50;;;;;;5029975;28;20134;-60
2022/04/18 10:28:56;;;;;;;;;;;27.60;43.60;;;;;;5045687;28;20095;-60
2022/04/18 10:31:28;;;;;;;4.80;3.60;;;27.40;42.90;;;;;;5050604;28;19975;-60
2022/04/18 10:33:57;;;;;;;5.72;3.88;;;27.90;43.40;;;;;;5050795;28;20056;-62
2022/04/18 10:36:26;;;;;;;5.50;3.60;;;28.20;43.20;;;;;;5050211;28;20535;-62
2022/04/18 10:38:53;;;;;;;6.40;3.80;;;28.50;43.00;;;;;;5050184;28;20288;-62
2022/04/18 10:41:33;;;;;;;4.47;3.65;;;28.20;42.60;;;;;;5051810;28;20088;-61
2022/04/18 10:44:05;;;;;;;4.78;3.47;;;28.30;41.40;;;;;;5049496;28;20143;-63
2022/04/18 10:46:31;;;;;;;5.07;3.58;;;28.30;42.90;;;;;;5051427;28;20080;-74
2022/04/18 10:49:00;;;;;;;4.40;3.45;;;28.80;42.90;;;;;;5048547;28;20109;-74
2022/04/18 10:51:28;;;;;;;5.38;3.15;;;29.20;42.50;;;;;;5051793;28;20053;-74
2022/04/18 10:54:06;;;;;;;5.65;3.03;;;29.00;42.10;;;;;;5049765;28;20059;-75
2022/04/18 10:56:56;;;;;;;4.68;3.40;;;29.10;42.10;;;;;;5049539;28;20045;-76
2022/04/18 10:59:27;;;;;;;3.95;2.90;;;29.50;40.60;;;;;;5052288;28;20080;-76
2022/04/18 11:01:56;;;;;;;4.35;3.10;;;29.20;40.60;;;;;;5050778;28;20049;-76
2022/04/18 11:04:27;;;;;;;4.47;2.95;;;29.10;41.40;;;;;;5050799;28;20072;-75
2022/04/18 11:07:02;;;;;;;4.95;2.72;;;29.10;40.90;;;;;;5050113;28;20110;-75
2022/04/18 11:09:31;;;;;;;3.78;2.53;;;29.20;40.10;;;;;;5049484;28;20485;-75
2022/04/18 11:12:08;;;;;;;6.90;2.38;;;29.20;40.80;;;;;;5050057;28;20059;-74
2022/04/18 11:14:51;;;;;;;3.67;2.78;;;29.20;40.10;;;;;;5050912;28;20083;-75
2022/04/18 11:17:30;;;;;;;4.18;2.80;;;29.30;39.10;;;;;;5051708;28;20124;-74
2022/04/18 11:19:57;;;;;;;4.50;2.92;;;29.20;39.40;;;;;;5051140;28;20044;-74
2022/04/18 11:22:24;;;;;;;3.72;2.80;;;29.20;40.40;;;;;;5049160;28;20052;-74
2022/04/18 11:25:03;;;;;;;4.28;2.38;;;29.10;40.30;;;;;;5049673;28;20091;-74
2022/04/18 11:27:39;;;;;;;3.63;2.50;;;29.10;40.10;;;;;;5050795;28;20057;-74
2022/04/18 11:30:11;;;;;;;5.22;2.63;;;29.30;40.00;;;;;;5049890;28;20045;-74
2022/04/18 11:32:40;;;;;;;3.13;2.10;;;29.40;39.80;;;;;;5049298;28;20056;-74
2022/04/18 11:35:08;;;;;;;4.20;2.67;;;29.30;39.80;;;;;;5049302;28;20138;-75
2022/04/18 11:37:39;;;;;;;4.18;2.28;;;29.30;39.10;;;;;;5050497;28;20045;-75
2022/04/18 11:40:08;;;;;;;5.30;2.63;;;29.00;39.10;;;;;;5047390;28;20049;-74
2022/04/18 11:42:37;;;;;;;5.00;2.60;;;28.70;39.00;;;;;;5049935;28;20052;-74
2022/04/18 11:45:06;;;;;;;4.10;2.35;;;29.00;39.20;;;;;;5046227;28;20122;-73
2022/04/18 11:47:36;;;;;;;;;;;29.10;39.30;;;;;;5049659;28;20396;-73
2022/04/18 11:50:05;;;;;;;4.55;2.72;;;29.10;39.00;;;;;;5051136;28;20019;-73
2022/04/18 11:52:35;;;;;;;3.60;2.20;;;29.40;39.50;;;;;;5053594;28;20132;-74
2022/04/18 11:55:05;;;;;;;3.97;2.38;;;29.50;39.70;;;;;;5054938;28;20045;-74
2022/04/18 11:57:33;;;;;;;3.40;2.55;;;29.90;39.60;;;;;;5052801;28;20081;-74
2022/04/18 12:00:00;;;;;;;4.87;2.47;;;29.80;39.00;;;;;;5055228;28;20083;-74
2022/04/18 12:08:02;;;;;;;4.45;2.55;;;30.00;39.40;;;;;;5053445;28;20052;-74
2022/04/18 12:10:31;;;;;;;5.38;2.50;;;30.00;39.00;;;;;;5054891;28;20128;-74
2022/04/18 12:13:00;;;;;;;4.75;2.65;;;30.10;38.90;;;;;;5054381;28;20399;-75
2022/04/18 12:15:29;;;;;;;5.22;2.75;;;29.80;38.80;;;;;;5052734;28;20083;-74
2022/04/18 12:17:57;;;;;;;3.85;2.63;;;30.00;39.10;;;;;;5053704;28;20493;-75
2022/04/18 12:20:28;;;;;;;3.95;2.10;;;30.00;38.60;;;;;;5053698;28;20045;-75
2022/04/18 12:22:58;;;;;;;4.57;2.60;;;30.00;37.70;;;;;;5053366;28;20481;-75
2022/04/18 12:25:27;;;;;;;4.65;2.80;;;29.80;37.90;;;;;;5051383;28;20136;-74
2022/04/18 12:27:55;;;;;;;3.63;2.42;;;29.40;38.10;;;;;;5054078;28;20099;-74
2022/04/18 12:30:22;;;;;;;3.28;2.75;;;29.40;38.50;;;;;;5053301;28;20067;-74
2022/04/18 12:32:49;;;;;;;3.85;2.65;;;29.90;38.90;;;;;;5052379;28;20132;-74
2022/04/18 12:35:34;;;;;;;4.53;3.03;;;30.00;38.40;;;;;;5053732;28;20206;-73
2022/04/18 12:38:04;;;;;;;3.88;2.97;;;30.10;38.90;;;;;;5052908;28;20478;-73
2022/04/18 12:40:36;;;;;;;5.32;3.17;;;29.80;39.00;;;;;;5053664;28;20462;-73
2022/04/18 12:43:08;;;;;;;5.03;3.00;;;30.50;39.00;;;;;;5052971;28;20084;-73
2022/04/18 12:45:52;;;;;;;4.35;3.20;;;30.30;38.70;;;;;;5051658;28;20045;-74
2022/04/18 12:48:24;;;;;;;4.03;3.10;;;30.20;38.70;;;;;;5053470;28;20075;-72
2022/04/18 12:50:51;;;;;;;4.18;2.97;;;30.20;39.10;;;;;;5053005;28;20122;-73
2022/04/18 12:53:20;;;;;;;4.75;3.28;;;30.20;39.00;;;;;;5052056;28;20279;-73
2022/04/18 12:55:47;;;;;;;5.13;3.20;;;30.20;38.60;;;;;;5051822;28;20463;-73
2022/04/18 12:58:19;;;;;;;4.82;2.85;;;30.20;38.50;;;;;;5053615;28;20057;-73
2022/04/18 13:00:47;;;;;;;5.75;3.47;;;30.00;38.00;;;;;;5054324;28;20053;-73
2022/04/18 13:03:15;;;;;;;4.10;2.80;;;30.20;38.40;;;;;;5052450;28;20430;-74
2022/04/18 13:05:44;;;;;;;4.07;3.08;;;30.10;38.30;;;;;;5053241;28;20107;-74
2022/04/18 13:08:12;;;;;;;5.05;2.95;;;30.30;38.80;;;;;;5054488;28;20052;-73
2022/04/18 13:10:40;;;;;;;3.65;2.97;;;30.80;38.40;;;;;;5053828;28;20552;-73
2022/04/18 13:13:11;;;;;;;4.15;2.78;;;30.80;38.60;;;;;;5053143;28;20103;-73
2022/04/18 13:15:40;;;;;;;4.10;2.78;;;30.70;38.10;;;;;;5052455;28;20080;-73
2022/04/18 13:18:09;;;;;;;5.25;2.67;;;30.80;38.00;;;;;;5052956;28;20107;-73
2022/04/18 13:20:38;;;;;;;3.72;2.47;;;30.50;37.70;;;;;;5053376;28;20059;-74
2022/04/18 13:23:06;;;;;;;4.10;2.57;;;30.00;38.00;;;;;;5053562;28;20465;-74
2022/04/18 13:25:33;;;;;;;3.83;2.50;;;30.00;37.70;;;;;;5053068;28;20156;-73
2022/04/18 13:28:06;;;;;;;4.82;2.90;;;30.30;38.10;;;;;;5052494;28;20112;-74